Time;durP1;ratioP1;P1;durP2;ratioP2;P2;SDS_P1;SDS_P2;PMS_P1;PMS_P2;Temp;Humidity;BMP_temperature;BMP_pressure;BME280_temperature;BME280_humidity;BME280_pressure;Samples;Min_cycle;Max_cycle;Signal;HPM_P1;HPM_P2
2022/01/08 00:00:35;;;;;;;3.00;2.70;;;6.80;93.30;;;;;;938483;150;27339;-71
2022/01/08 00:03:02;;;;;;;2.97;2.60;;;6.80;93.20;;;;;;941649;148;27277;-69
2022/01/08 00:05:28;;;;;;;2.80;2.53;;;6.80;93.20;;;;;;951478;148;27221;-71
2022/01/08 00:07:55;;;;;;;2.10;2.00;;;6.80;93.20;;;;;;946357;147;27526;-70
2022/01/08 00:10:22;;;;;;;2.67;2.47;;;6.80;93.30;;;;;;958802;145;27314;-70
2022/01/08 00:12:50;;;;;;;3.00;2.60;;;6.80;93.30;;;;;;963208;146;27241;-70
2022/01/08 00:15:15;;;;;;;2.40;2.20;;;6.80;93.40;;;;;;963467;146;27417;-71
2022/01/08 00:17:41;;;;;;;2.40;2.20;;;6.80;93.40;;;;;;961840;146;27407;-69
2022/01/08 00:20:08;;;;;;;2.67;2.40;;;6.80;93.40;;;;;;958511;148;27302;-70
2022/01/08 00:22:34;;;;;;;2.27;2.07;;;6.80;93.40;;;;;;947759;148;27332;-70
2022/01/08 00:25:01;;;;;;;2.50;2.30;;;6.80;93.40;;;;;;940584;148;27747;-72
2022/01/08 00:27:28;;;;;;;2.27;1.90;;;6.80;93.40;;;;;;937160;148;29561;-70
2022/01/08 00:29:54;;;;;;;2.13;1.97;;;6.80;93.40;;;;;;963344;144;27338;-70
2022/01/08 00:32:21;;;;;;;2.63;2.23;;;6.80;93.40;;;;;;964006;144;27258;-69
2022/01/08 00:34:47;;;;;;;2.27;2.07;;;6.80;93.40;;;;;;955848;145;27310;-71
2022/01/08 00:37:14;;;;;;;1.90;1.80;;;6.80;93.50;;;;;;975412;144;27389;-70
2022/01/08 00:39:41;;;;;;;1.97;1.87;;;6.80;93.50;;;;;;958063;145;27316;-70
2022/01/08 00:42:07;;;;;;;3.03;2.30;;;6.70;93.50;;;;;;981420;145;27214;-70
2022/01/08 00:44:34;;;;;;;2.00;1.70;;;6.70;93.40;;;;;;977927;144;27308;-71
2022/01/08 00:47:00;;;;;;;2.53;1.90;;;6.70;93.40;;;;;;973143;144;27346;-70
2022/01/08 00:49:27;;;;;;;2.10;1.90;;;6.70;93.50;;;;;;971742;144;27221;-70
2022/01/08 00:51:53;;;;;;;2.13;1.90;;;6.70;93.50;;;;;;981682;144;27303;-72
2022/01/08 00:54:20;;;;;;;2.37;2.00;;;6.70;93.60;;;;;;980703;144;27740;-70
2022/01/08 00:56:48;;;;;;;2.13;1.90;;;6.60;93.50;;;;;;962685;148;27883;-70
2022/01/08 00:59:14;;;;;;;2.00;1.90;;;6.60;93.60;;;;;;964977;146;27238;-71
2022/01/08 01:01:40;;;;;;;1.93;1.83;;;6.60;93.50;;;;;;961731;146;27278;-71
2022/01/08 01:04:06;;;;;;;1.97;1.87;;;6.60;93.50;;;;;;949143;146;27415;-70
2022/01/08 01:06:33;;;;;;;2.27;2.07;;;6.60;93.50;;;;;;957732;148;27426;-69
2022/01/08 01:09:00;;;;;;;2.60;2.10;;;6.50;93.60;;;;;;956684;148;27343;-70
2022/01/08 01:11:26;;;;;;;2.13;1.93;;;6.50;93.60;;;;;;959295;148;27259;-73
2022/01/08 01:13:53;;;;;;;2.23;2.00;;;6.50;93.70;;;;;;953668;148;27407;-70
2022/01/08 01:16:22;;;;;;;3.50;1.93;;;6.50;93.70;;;;;;957823;148;27392;-70
2022/01/08 01:18:49;;;;;;;2.07;1.90;;;6.50;93.70;;;;;;961061;148;27298;-71
2022/01/08 01:21:15;;;;;;;2.00;1.90;;;6.40;93.70;;;;;;959094;148;27386;-71
2022/01/08 01:23:43;;;;;;;2.30;2.07;;;6.40;93.80;;;;;;959895;148;27306;-69
2022/01/08 01:26:14;;;;;;;2.10;1.90;;;6.40;93.90;;;;;;963246;148;27719;-70
2022/01/08 01:47:05;;;;;;;1.90;1.80;;;6.40;94.20;;;;;;964774;148;27360;-71
2022/01/08 01:49:31;;;;;;;2.10;1.90;;;6.40;94.20;;;;;;959057;148;27375;-71
2022/01/08 01:51:59;;;;;;;2.63;1.70;;;6.30;94.20;;;;;;960853;148;27298;-69
2022/01/08 01:54:25;;;;;;;2.07;1.90;;;6.30;94.30;;;;;;952357;148;27318;-70
2022/01/08 01:56:51;;;;;;;2.87;1.93;;;6.40;94.40;;;;;;965214;148;27394;-70
2022/01/08 01:59:18;;;;;;;1.67;1.57;;;6.30;94.40;;;;;;959159;148;27371;-70
2022/01/08 02:01:44;;;;;;;2.03;1.87;;;6.40;94.40;;;;;;956713;148;27282;-70
2022/01/08 02:04:11;;;;;;;1.60;1.50;;;6.30;94.20;;;;;;960114;148;27462;-71
2022/01/08 02:06:38;;;;;;;1.20;1.13;;;6.30;94.40;;;;;;961664;148;27431;-72
2022/01/08 02:09:04;;;;;;;3.23;1.90;;;6.30;94.30;;;;;;950536;148;27313;-70
2022/01/08 02:11:31;;;;;;;2.00;1.90;;;6.30;94.20;;;;;;955177;148;27337;-72
2022/01/08 02:14:06;;;;;;;1.40;1.30;;;6.20;94.10;;;;;;960419;148;27246;-72
2022/01/08 02:16:35;;;;;;;1.70;1.30;;;6.20;94.10;;;;;;963644;148;27251;-70
2022/01/08 02:19:01;;;;;;;1.40;1.30;;;6.10;93.80;;;;;;966379;148;27231;-70
2022/01/08 02:21:28;;;;;;;2.13;1.47;;;6.10;93.60;;;;;;964545;148;27723;-70
2022/01/08 02:23:54;;;;;;;1.30;1.30;;;6.00;93.70;;;;;;962315;148;27298;-70
2022/01/08 02:26:21;;;;;;;2.07;1.37;;;5.90;93.70;;;;;;953773;148;27309;-71
2022/01/08 02:28:48;;;;;;;1.17;1.17;;;5.80;93.80;;;;;;956577;148;27270;-70
2022/01/08 02:31:20;;;;;;;1.73;1.40;;;5.70;94.00;;;;;;952170;148;27388;-72
2022/01/08 02:33:46;;;;;;;1.20;1.10;;;5.70;94.10;;;;;;956619;148;27399;-71
2022/01/08 02:36:13;;;;;;;1.40;1.30;;;5.60;94.10;;;;;;955927;148;27313;-72
2022/01/08 02:38:40;;;;;;;1.27;1.23;;;5.50;94.30;;;;;;964651;148;27290;-70
2022/01/08 02:41:07;;;;;;;1.83;1.40;;;5.50;94.30;;;;;;954054;148;27397;-70
2022/01/08 02:43:41;;;;;;;1.37;1.37;;;5.40;94.40;;;;;;963817;148;27410;-72
2022/01/08 02:46:02;;;;;;;3.30;1.47;;;5.40;94.50;;;;;;958550;147;27345;-70
2022/01/08 02:48:29;;;;;;;1.60;1.50;;;5.30;94.60;;;;;;970419;146;27309;-69
2022/01/08 02:50:55;;;;;;;2.77;1.40;;;5.30;94.60;;;;;;964897;146;27327;-73
2022/01/08 02:53:22;;;;;;;1.40;1.33;;;5.30;94.60;;;;;;965998;146;27312;-69
2022/01/08 02:55:49;;;;;;;2.10;1.70;;;5.20;94.40;;;;;;961087;147;27247;-70
2022/01/08 02:58:15;;;;;;;1.50;1.40;;;5.20;94.30;;;;;;967632;147;27359;-73
2022/01/08 03:00:42;;;;;;;1.60;1.50;;;5.10;94.10;;;;;;956880;146;27818;-70
2022/01/08 03:03:08;;;;;;;1.67;1.57;;;5.10;94.20;;;;;;956976;147;27433;-70
2022/01/08 03:05:37;;;;;;;1.60;1.50;;;5.00;94.30;;;;;;971208;147;27610;-70
2022/01/08 03:08:04;;;;;;;2.90;1.90;;;4.90;94.40;;;;;;965304;146;27308;-71
2022/01/08 03:10:31;;;;;;;2.77;1.83;;;4.80;94.60;;;;;;956917;146;27418;-69
2022/01/08 03:12:57;;;;;;;2.10;1.90;;;4.80;94.80;;;;;;967712;146;27286;-69
2022/01/08 03:15:25;;;;;;;2.17;1.87;;;4.70;94.90;;;;;;959883;146;27425;-71
2022/01/08 03:17:50;;;;;;;2.00;1.90;;;4.70;95.00;;;;;;962921;147;27428;-72
2022/01/08 03:20:17;;;;;;;1.97;1.83;;;4.70;95.20;;;;;;961527;147;27325;-71
2022/01/08 03:22:43;;;;;;;2.50;2.30;;;4.70;95.40;;;;;;968731;146;27257;-70
2022/01/08 03:25:10;;;;;;;1.40;1.30;;;4.70;95.50;;;;;;956271;147;27360;-82
2022/01/08 03:27:37;;;;;;;2.00;1.90;;;4.70;95.60;;;;;;959266;147;27267;-82
2022/01/08 03:30:06;;;;;;;2.33;2.10;;;4.70;95.50;;;;;;962848;147;27332;-84
2022/01/08 03:32:32;;;;;;;2.00;1.90;;;4.70;95.50;;;;;;967882;146;27368;-81
2022/01/08 03:34:59;;;;;;;1.83;1.70;;;4.70;95.40;;;;;;955526;147;27301;-84
2022/01/08 03:37:25;;;;;;;1.97;1.87;;;4.70;95.30;;;;;;959857;147;27375;-83
2022/01/08 03:39:52;;;;;;;1.60;1.50;;;4.70;95.20;;;;;;964834;146;27318;-78
2022/01/08 03:42:19;;;;;;;1.80;1.70;;;4.70;95.10;;;;;;961436;148;27385;-74
2022/01/08 03:44:45;;;;;;;1.50;1.40;;;4.60;95.00;;;;;;962741;148;27402;-75
2022/01/08 03:49:53;;;;;;;1.50;1.40;;;4.60;94.90;;;;;;956938;147;27433;-77
2022/01/08 03:52:20;;;;;;;1.40;1.30;;;4.50;94.90;;;;;;962047;147;27290;-74
2022/01/08 03:54:47;;;;;;;1.53;1.43;;;4.50;94.90;;;;;;962606;147;27317;-75
2022/01/08 03:57:13;;;;;;;1.23;1.20;;;4.50;95.10;;;;;;962853;147;27339;-74
2022/01/08 03:59:40;;;;;;;1.20;1.10;;;4.40;95.10;;;;;;957996;147;27395;-75
2022/01/08 04:02:06;;;;;;;1.17;1.17;;;4.40;95.10;;;;;;961693;146;27289;-74
2022/01/08 04:04:33;;;;;;;1.10;1.10;;;4.40;95.00;;;;;;964944;147;27313;-75
2022/01/08 04:06:59;;;;;;;1.03;1.03;;;4.30;95.10;;;;;;964369;146;27348;-75
2022/01/08 04:09:26;;;;;;;1.37;1.27;;;4.30;95.10;;;;;;964276;147;27342;-75
2022/01/08 04:11:53;;;;;;;1.03;1.03;;;4.30;95.20;;;;;;964599;146;27262;-75
2022/01/08 04:14:20;;;;;;;1.30;1.20;;;4.30;95.30;;;;;;965654;146;27285;-75
2022/01/08 04:16:50;;;;;;;1.40;1.30;;;4.20;95.40;;;;;;962986;147;27289;-75
2022/01/08 04:19:12;;;;;;;1.60;1.50;;;4.20;95.40;;;;;;963776;147;27294;-75
2022/01/08 04:24:24;;;;;;;1.13;1.03;;;4.20;95.50;;;;;;958010;147;27321;-76
2022/01/08 04:26:51;;;;;;;1.53;1.43;;;4.20;95.50;;;;;;962411;147;27305;-76
2022/01/08 04:29:17;;;;;;;1.00;1.00;;;4.20;95.50;;;;;;955680;147;27402;-76
2022/01/08 04:31:44;;;;;;;0.97;0.97;;;4.20;95.70;;;;;;960057;147;27217;-76
2022/01/08 04:34:10;;;;;;;1.00;1.00;;;4.20;95.80;;;;;;962361;146;27271;-76
2022/01/08 04:36:37;;;;;;;1.07;1.07;;;4.20;95.70;;;;;;961845;147;27321;-76
2022/01/08 04:39:03;;;;;;;1.63;1.53;;;4.20;95.70;;;;;;966912;146;27445;-76
2022/01/08 04:41:30;;;;;;;4.80;2.90;;;4.20;95.70;;;;;;967891;147;27456;-76
2022/01/08 04:43:57;;;;;;;6.93;3.80;;;4.20;95.70;;;;;;965124;146;27974;-76
2022/01/08 04:46:23;;;;;;;4.87;2.80;;;4.20;95.70;;;;;;956754;146;27362;-76
2022/01/08 04:48:50;;;;;;;2.67;1.50;;;4.20;95.70;;;;;;967402;147;27732;-75
2022/01/08 04:51:16;;;;;;;1.33;1.20;;;4.20;95.70;;;;;;960080;146;27393;-76
2022/01/08 04:53:43;;;;;;;0.80;0.80;;;4.20;95.70;;;;;;970877;146;27454;-76
2022/01/08 04:56:10;;;;;;;0.83;0.70;;;4.20;95.70;;;;;;968273;146;27319;-76
2022/01/08 04:58:36;;;;;;;0.60;0.60;;;4.20;95.80;;;;;;960187;146;27259;-75
2022/01/08 05:01:03;;;;;;;0.60;0.60;;;4.20;95.80;;;;;;967622;147;27285;-76
2022/01/08 05:03:29;;;;;;;0.60;0.60;;;4.20;95.90;;;;;;970681;146;27756;-76
2022/01/08 05:05:56;;;;;;;0.67;0.50;;;4.20;95.90;;;;;;963214;147;27321;-75
2022/01/08 05:08:22;;;;;;;0.80;0.80;;;4.20;95.90;;;;;;958318;147;27328;-76
2022/01/08 05:10:49;;;;;;;0.70;0.70;;;4.20;96.00;;;;;;967989;147;27289;-76
2022/01/08 05:13:16;;;;;;;0.60;0.60;;;4.20;96.10;;;;;;963939;146;27337;-75
2022/01/08 05:15:42;;;;;;;0.53;0.50;;;4.20;96.20;;;;;;963650;147;27345;-75
2022/01/08 05:18:10;;;;;;;0.70;0.70;;;4.20;96.20;;;;;;960449;147;27392;-76
2022/01/08 05:20:38;;;;;;;0.70;0.70;;;4.20;96.20;;;;;;960624;147;27458;-75
2022/01/08 05:23:05;;;;;;;0.70;0.70;;;4.20;96.20;;;;;;963918;147;27366;-75
2022/01/08 05:25:31;;;;;;;0.80;0.80;;;4.20;96.20;;;;;;962496;147;27308;-75
2022/01/08 05:27:58;;;;;;;0.53;0.53;;;4.20;96.30;;;;;;960227;147;27390;-75
2022/01/08 05:30:27;;;;;;;0.60;0.50;;;4.20;96.40;;;;;;965401;147;27276;-75
2022/01/08 05:32:54;;;;;;;0.60;0.60;;;4.30;96.40;;;;;;965323;146;27301;-75
2022/01/08 05:35:20;;;;;;;0.60;0.60;;;4.30;96.40;;;;;;956209;147;27284;-76
2022/01/08 05:37:47;;;;;;;0.70;0.70;;;4.30;96.40;;;;;;962891;147;27276;-75
2022/01/08 05:40:16;;;;;;;0.60;0.60;;;4.30;96.40;;;;;;957210;147;27326;-75
2022/01/08 05:42:43;;;;;;;0.53;0.53;;;4.30;96.50;;;;;;962477;147;27336;-76
2022/01/08 05:45:09;;;;;;;0.67;0.67;;;4.30;96.40;;;;;;963726;147;27238;-75
2022/01/08 05:47:36;;;;;;;0.50;0.50;;;4.30;96.30;;;;;;962353;147;27442;-75
2022/01/08 05:50:05;;;;;;;0.50;0.50;;;4.30;96.30;;;;;;953807;148;27311;-75
2022/01/08 05:52:32;;;;;;;0.53;0.40;;;4.30;96.30;;;;;;954254;150;27280;-75
2022/01/08 05:54:59;;;;;;;0.67;0.67;;;4.30;96.20;;;;;;953415;147;27328;-75
2022/01/08 05:57:25;;;;;;;0.60;0.60;;;4.30;96.20;;;;;;950595;150;27317;-75
2022/01/08 05:59:52;;;;;;;0.50;0.50;;;4.30;96.20;;;;;;954984;150;27279;-75
2022/01/08 06:02:18;;;;;;;0.60;0.60;;;4.30;96.40;;;;;;956326;147;27304;-75
2022/01/08 06:04:45;;;;;;;2.10;1.00;;;4.30;96.40;;;;;;955523;150;27317;-75
2022/01/08 06:07:11;;;;;;;0.60;0.60;;;4.30;96.90;;;;;;942746;150;27762;-75
2022/01/08 06:09:38;;;;;;;0.67;0.67;;;4.30;96.60;;;;;;945658;150;27303;-75
2022/01/08 06:12:05;;;;;;;0.70;0.60;;;4.30;96.60;;;;;;955058;149;27320;-75
2022/01/08 06:14:31;;;;;;;0.47;0.47;;;4.30;96.70;;;;;;947006;148;27468;-75
2022/01/08 06:16:58;;;;;;;0.60;0.60;;;4.40;96.80;;;;;;949771;150;27319;-75
2022/01/08 06:19:24;;;;;;;0.70;0.70;;;4.40;96.80;;;;;;950024;150;27369;-75
2022/01/08 06:21:51;;;;;;;0.83;0.83;;;4.40;96.90;;;;;;953810;150;27361;-75
2022/01/08 06:24:18;;;;;;;0.60;0.60;;;4.40;96.90;;;;;;951251;150;27389;-76
2022/01/08 06:26:44;;;;;;;0.77;0.77;;;4.40;97.30;;;;;;955755;145;27336;-75
2022/01/08 06:29:11;;;;;;;0.80;0.80;;;4.50;97.00;;;;;;938774;146;27440;-75
2022/01/08 06:31:37;;;;;;;0.70;0.70;;;4.50;97.00;;;;;;944039;148;27278;-75
2022/01/08 06:34:04;;;;;;;0.90;0.90;;;4.60;96.90;;;;;;943314;149;27489;-75
2022/01/08 06:36:30;;;;;;;1.57;1.00;;;4.60;96.90;;;;;;956045;144;27315;-75
2022/01/08 06:38:57;;;;;;;1.10;1.10;;;4.60;96.90;;;;;;957610;148;27630;-75
2022/01/08 06:41:24;;;;;;;1.10;1.10;;;4.60;96.90;;;;;;954016;149;27359;-75
2022/01/08 06:43:53;;;;;;;1.30;1.20;;;4.60;97.20;;;;;;955676;147;27690;-75
2022/01/08 06:46:20;;;;;;;1.10;1.10;;;4.60;97.30;;;;;;958010;147;27316;-75
2022/01/08 06:48:49;;;;;;;1.37;1.27;;;4.70;97.00;;;;;;942849;147;27456;-75
2022/01/08 06:51:15;;;;;;;1.50;1.40;;;4.70;97.10;;;;;;943114;149;27280;-76
2022/01/08 06:53:42;;;;;;;1.33;1.33;;;4.70;97.10;;;;;;935851;152;27332;-75
2022/01/08 06:56:09;;;;;;;2.40;1.70;;;4.70;97.10;;;;;;953197;149;27309;-75
2022/01/08 06:58:35;;;;;;;1.43;1.43;;;4.80;97.10;;;;;;941436;151;27456;-75
2022/01/08 07:01:02;;;;;;;2.07;1.80;;;4.80;97.10;;;;;;955708;148;27424;-75
2022/01/08 07:03:28;;;;;;;1.73;1.50;;;4.80;97.00;;;;;;952964;149;27250;-76
2022/01/08 07:05:55;;;;;;;1.60;1.50;;;4.80;97.00;;;;;;957457;149;27800;-75
2022/01/08 07:08:22;;;;;;;2.30;1.93;;;4.90;96.90;;;;;;955760;148;27350;-75
2022/01/08 07:10:48;;;;;;;4.70;3.77;;;4.90;96.80;;;;;;944797;149;27318;-75
2022/01/08 07:13:15;;;;;;;4.03;3.23;;;4.90;96.60;;;;;;954300;149;27437;-75
2022/01/08 07:15:41;;;;;;;4.40;3.00;;;4.90;96.50;;;;;;957219;149;27391;-75
2022/01/08 07:18:14;;;;;;;3.30;2.47;;;4.80;96.40;;;;;;955898;148;27339;-74
2022/01/08 07:20:40;;;;;;;2.40;2.20;;;4.80;96.30;;;;;;947014;149;27270;-75
2022/01/08 07:23:07;;;;;;;2.23;2.10;;;4.80;96.30;;;;;;950722;149;27280;-75
2022/01/08 07:25:34;;;;;;;2.03;1.83;;;4.80;96.30;;;;;;949279;149;27342;-75
2022/01/08 07:28:00;;;;;;;3.50;2.60;;;4.80;96.40;;;;;;953653;149;27398;-75
2022/01/08 07:30:27;;;;;;;2.77;2.57;;;4.70;96.40;;;;;;947657;148;27850;-75
2022/01/08 07:32:53;;;;;;;3.00;2.70;;;4.70;96.30;;;;;;954759;149;27358;-75
2022/01/08 07:35:21;;;;;;;3.10;2.90;;;4.70;96.20;;;;;;950075;149;27399;-75
2022/01/08 07:37:47;;;;;;;3.13;2.83;;;4.70;96.10;;;;;;956772;149;27416;-75
2022/01/08 07:40:13;;;;;;;2.97;2.67;;;4.70;96.00;;;;;;955911;149;27318;-75
2022/01/08 07:42:40;;;;;;;2.80;2.60;;;4.60;95.80;;;;;;956362;149;27446;-75
2022/01/08 07:45:06;;;;;;;2.73;2.40;;;4.60;95.80;;;;;;951831;149;27283;-75
2022/01/08 07:47:33;;;;;;;2.60;2.40;;;4.50;95.80;;;;;;938734;151;27324;-75
2022/01/08 07:49:59;;;;;;;2.30;2.13;;;4.50;96.00;;;;;;954614;147;27401;-75
2022/01/08 07:52:26;;;;;;;2.10;1.90;;;4.50;96.10;;;;;;948401;147;27295;-75
2022/01/08 07:54:53;;;;;;;2.53;2.33;;;4.40;96.20;;;;;;951587;147;27421;-75
2022/01/08 07:57:19;;;;;;;2.43;2.20;;;4.40;96.40;;;;;;959745;147;27337;-75
2022/01/08 07:59:46;;;;;;;2.23;2.00;;;4.40;96.60;;;;;;960647;147;27383;-75
2022/01/08 08:02:12;;;;;;;2.23;2.00;;;4.40;96.80;;;;;;956239;147;27740;-75
2022/01/08 08:04:39;;;;;;;2.37;2.17;;;4.40;96.70;;;;;;949467;147;27334;-75
2022/01/08 08:07:06;;;;;;;2.40;2.17;;;4.40;96.70;;;;;;945584;147;27455;-75
2022/01/08 08:09:32;;;;;;;2.67;2.47;;;4.40;96.50;;;;;;961841;147;27279;-75
2022/01/08 08:11:59;;;;;;;2.37;2.17;;;4.40;96.50;;;;;;949000;146;27704;-75
2022/01/08 08:14:25;;;;;;;3.37;2.90;;;4.40;96.60;;;;;;968499;147;27330;-75
2022/01/08 08:16:52;;;;;;;3.00;2.80;;;4.50;96.70;;;;;;954251;146;27627;-75
2022/01/08 08:19:18;;;;;;;3.70;2.83;;;4.50;96.90;;;;;;951279;147;27286;-75
2022/01/08 08:21:45;;;;;;;3.67;3.27;;;4.50;97.10;;;;;;952287;147;27486;-75
2022/01/08 08:24:14;;;;;;;3.03;2.83;;;4.50;97.20;;;;;;952452;147;27328;-74
2022/01/08 08:26:38;;;;;;;3.57;3.30;;;4.60;97.30;;;;;;950820;147;27388;-75
2022/01/08 08:29:05;;;;;;;3.07;2.87;;;4.60;97.50;;;;;;949928;147;27774;-75
2022/01/08 08:31:31;;;;;;;3.70;3.40;;;4.70;97.70;;;;;;964143;147;27279;-75
2022/01/08 08:34:01;;;;;;;3.93;3.63;;;4.80;97.80;;;;;;950979;147;27445;-75
2022/01/08 08:36:27;;;;;;;3.97;3.67;;;4.80;97.80;;;;;;951309;147;27332;-75
2022/01/08 08:38:57;;;;;;;4.83;3.87;;;4.90;97.70;;;;;;966876;147;27283;-75
2022/01/08 08:41:23;;;;;;;4.93;4.10;;;5.00;97.80;;;;;;966780;147;27302;-75
2022/01/08 08:43:50;;;;;;;5.33;3.73;;;5.10;97.70;;;;;;948191;147;27855;-75
2022/01/08 08:46:16;;;;;;;3.87;3.50;;;5.10;97.60;;;;;;955392;147;27325;-75
2022/01/08 08:48:44;;;;;;;4.53;4.07;;;5.20;97.60;;;;;;958421;147;27454;-75
2022/01/08 08:51:10;;;;;;;5.37;3.97;;;5.30;97.60;;;;;;950310;147;27269;-75
2022/01/08 08:53:36;;;;;;;4.23;3.83;;;5.30;97.50;;;;;;963381;146;27408;-75
2022/01/08 08:56:04;;;;;;;7.50;4.50;;;5.40;97.40;;;;;;966532;146;27329;-75
2022/01/08 08:58:29;;;;;;;4.13;3.73;;;5.50;97.30;;;;;;964991;146;27367;-75
2022/01/08 09:00:56;;;;;;;4.23;3.80;;;5.50;97.10;;;;;;964320;146;27368;-75
2022/01/08 09:03:25;;;;;;;4.17;3.77;;;5.60;97.10;;;;;;961213;146;27325;-75
2022/01/08 09:05:52;;;;;;;4.87;4.33;;;5.60;97.00;;;;;;970057;145;27251;-75
2022/01/08 09:08:18;;;;;;;4.93;4.43;;;5.60;96.90;;;;;;954931;149;27425;-75
2022/01/08 09:10:45;;;;;;;7.00;6.20;;;5.70;96.80;;;;;;955630;148;27292;-75
2022/01/08 09:13:14;;;;;;;6.87;5.43;;;5.70;96.70;;;;;;960877;147;27270;-75
2022/01/08 09:15:42;;;;;;;5.97;4.47;;;5.70;96.60;;;;;;956056;146;27376;-75
2022/01/08 09:18:08;;;;;;;4.93;4.17;;;5.70;96.60;;;;;;957481;148;27295;-75
2022/01/08 09:20:34;;;;;;;4.50;4.07;;;5.80;96.60;;;;;;950207;148;27422;-75
2022/01/08 09:23:01;;;;;;;4.30;3.67;;;5.80;96.70;;;;;;959579;148;27225;-77
2022/01/08 09:25:27;;;;;;;4.50;4.03;;;5.80;96.60;;;;;;959496;147;27280;-75
2022/01/08 09:27:54;;;;;;;4.60;4.20;;;5.90;96.60;;;;;;955757;146;27329;-75
2022/01/08 09:30:21;;;;;;;4.40;4.00;;;5.90;96.60;;;;;;973335;146;27314;-75
2022/01/08 09:32:47;;;;;;;6.40;4.43;;;5.90;96.40;;;;;;963836;146;27775;-75
2022/01/08 09:35:14;;;;;;;4.87;4.40;;;6.00;96.30;;;;;;968214;146;27348;-75
2022/01/08 09:37:40;;;;;;;4.50;4.10;;;6.00;96.00;;;;;;951220;148;27306;-74
2022/01/08 09:40:07;;;;;;;4.90;4.13;;;6.00;95.80;;;;;;961005;146;27321;-76
2022/01/08 09:42:34;;;;;;;5.13;4.63;;;6.00;95.80;;;;;;962760;146;27295;-76
2022/01/08 09:45:00;;;;;;;5.50;4.90;;;6.00;95.90;;;;;;956008;146;27407;-76
2022/01/08 09:47:27;;;;;;;5.37;3.80;;;6.00;95.90;;;;;;974714;146;27469;-76
2022/01/08 09:49:53;;;;;;;5.40;4.67;;;6.00;95.90;;;;;;953091;145;27454;-76
2022/01/08 09:52:23;;;;;;;6.53;4.37;;;6.00;95.90;;;;;;952494;149;27384;-76
2022/01/08 09:54:49;;;;;;;4.83;4.23;;;6.00;95.90;;;;;;950019;146;27322;-76
2022/01/08 09:57:16;;;;;;;5.50;4.10;;;6.10;95.80;;;;;;953749;146;27342;-76
2022/01/08 09:59:43;;;;;;;6.93;4.37;;;6.10;95.70;;;;;;960211;146;27297;-76
2022/01/08 10:02:09;;;;;;;5.20;3.83;;;6.10;95.60;;;;;;957510;146;28065;-76
2022/01/08 10:04:36;;;;;;;4.47;3.87;;;6.10;95.70;;;;;;959196;146;27385;-76
2022/01/08 10:07:21;;;;;;;5.17;3.87;;;6.10;95.60;;;;;;953472;146;27283;-76
2022/01/08 10:09:59;;;;;;;5.80;4.43;;;6.20;95.70;;;;;;947951;146;27326;-76
2022/01/08 10:12:34;;;;;;;4.20;3.77;;;6.20;95.70;;;;;;942828;146;27443;-76
2022/01/08 10:17:46;;;;;;;3.73;3.33;;;6.20;95.70;;;;;;949922;146;27379;-74
2022/01/08 10:20:12;;;;;;;5.83;3.63;;;6.20;95.70;;;;;;951854;146;27276;-74
2022/01/08 10:22:39;;;;;;;3.70;3.37;;;6.20;95.90;;;;;;950594;146;27305;-74
2022/01/08 10:25:11;;;;;;;5.93;3.50;;;6.30;96.10;;;;;;964337;146;27274;-75
2022/01/08 10:27:38;;;;;;;3.47;2.97;;;6.30;96.20;;;;;;964854;146;27432;-74
2022/01/08 10:30:04;;;;;;;7.00;3.67;;;6.40;96.00;;;;;;953092;146;27328;-74
2022/01/08 10:32:31;;;;;;;3.23;2.93;;;6.50;95.70;;;;;;951948;149;27407;-74
2022/01/08 10:34:57;;;;;;;3.77;2.93;;;6.50;95.60;;;;;;955846;146;27406;-74
2022/01/08 10:37:24;;;;;;;7.77;3.33;;;6.50;95.50;;;;;;949489;146;27416;-75
2022/01/08 10:39:54;;;;;;;3.87;3.33;;;6.50;95.90;;;;;;977119;146;27294;-74
2022/01/08 10:42:21;;;;;;;4.20;3.10;;;6.60;95.70;;;;;;959831;146;27261;-74
2022/01/08 10:44:47;;;;;;;3.07;2.83;;;6.60;95.70;;;;;;956540;146;27257;-74
2022/01/08 10:47:16;;;;;;;4.83;3.23;;;6.60;95.70;;;;;;959154;146;27687;-74
2022/01/08 10:50:00;;;;;;;3.37;2.80;;;6.70;95.50;;;;;;951667;146;27741;-75
2022/01/08 10:52:25;;;;;;;3.60;3.13;;;6.80;95.40;;;;;;938487;146;27419;-74
2022/01/08 10:54:57;;;;;;;3.53;3.00;;;6.80;95.30;;;;;;963896;146;27242;-74
2022/01/08 10:57:38;;;;;;;6.47;5.17;;;6.90;95.40;;;;;;956558;146;27331;-75
2022/01/08 11:00:05;;;;;;;8.63;5.47;;;6.90;95.40;;;;;;955107;146;27400;-75
2022/01/08 11:02:31;;;;;;;10.60;6.97;;;7.00;95.50;;;;;;951573;146;27340;-75
2022/01/08 11:04:58;;;;;;;12.87;8.10;;;7.00;95.30;;;;;;957225;146;27267;-75
2022/01/08 11:07:25;;;;;;;12.30;7.43;;;7.10;95.20;;;;;;954704;146;27408;-75
2022/01/08 11:09:54;;;;;;;8.87;5.47;;;7.10;94.80;;;;;;957247;146;27467;-75
2022/01/08 11:12:26;;;;;;;7.10;4.63;;;7.10;94.60;;;;;;962682;146;27294;-75
2022/01/08 11:17:29;;;;;;;5.63;4.67;;;7.20;94.60;;;;;;951953;146;27657;-74
2022/01/08 11:19:57;;;;;;;8.73;4.33;;;7.20;94.70;;;;;;960083;146;27285;-74
2022/01/08 11:22:24;;;;;;;3.67;3.03;;;7.20;94.60;;;;;;957937;146;27399;-74
2022/01/08 11:24:53;;;;;;;3.80;2.47;;;7.30;94.60;;;;;;964296;146;27306;-74
2022/01/08 11:27:20;;;;;;;4.67;2.90;;;7.30;94.60;;;;;;950490;146;27320;-74
2022/01/08 11:29:46;;;;;;;3.23;3.00;;;7.30;94.60;;;;;;961416;146;27335;-74
2022/01/08 11:32:13;;;;;;;4.87;3.10;;;7.40;94.60;;;;;;952405;146;27394;-73
2022/01/08 11:34:43;;;;;;;5.33;2.90;;;7.40;94.40;;;;;;966584;146;27320;-74
2022/01/08 11:37:08;;;;;;;3.73;2.63;;;7.40;94.20;;;;;;951628;146;27330;-73
2022/01/08 11:39:33;;;;;;;2.90;2.60;;;7.40;94.20;;;;;;957211;146;27400;-74
2022/01/08 11:41:59;;;;;;;3.00;2.80;;;7.40;93.60;;;;;;953947;146;27325;-74
2022/01/08 11:44:26;;;;;;;5.53;3.20;;;7.40;93.30;;;;;;960962;146;27386;-74
2022/01/08 11:46:52;;;;;;;5.97;3.10;;;7.30;93.10;;;;;;956430;146;27294;-74
2022/01/08 11:49:19;;;;;;;5.37;2.70;;;7.20;93.10;;;;;;964822;146;27336;-74
2022/01/08 11:51:45;;;;;;;3.30;2.97;;;7.20;93.10;;;;;;964727;146;27836;-74
2022/01/08 11:54:12;;;;;;;5.77;2.47;;;7.10;93.00;;;;;;958199;146;27333;-74
2022/01/08 11:56:39;;;;;;;4.27;2.47;;;7.00;92.90;;;;;;963049;146;27390;-74
2022/01/08 11:59:11;;;;;;;2.67;2.33;;;6.90;92.80;;;;;;955080;146;27231;-74
2022/01/08 12:01:37;;;;;;;6.63;2.70;;;6.90;92.80;;;;;;957451;146;27413;-74
2022/01/08 12:04:04;;;;;;;6.77;2.50;;;6.80;93.00;;;;;;953441;148;27458;-73
2022/01/08 12:06:33;;;;;;;4.17;2.77;;;6.70;93.20;;;;;;948268;146;27899;-73
2022/01/08 12:09:07;;;;;;;2.50;2.23;;;6.70;93.40;;;;;;958050;145;27378;-74
2022/01/08 12:11:24;;;;;;;3.70;2.50;;;6.70;93.70;;;;;;952388;148;27220;-73
2022/01/08 12:13:52;;;;;;;3.80;2.70;;;6.70;94.30;;;;;;966809;144;27308;-73
2022/01/08 12:16:39;;;;;;;3.53;2.20;;;6.70;94.00;;;;;;946141;149;27377;-73
2022/01/08 12:19:05;;;;;;;3.47;2.50;;;6.70;94.10;;;;;;951553;146;27411;-74
2022/01/08 12:21:37;;;;;;;3.37;2.23;;;6.70;93.90;;;;;;952273;145;27227;-74
2022/01/08 12:24:28;;;;;;;3.80;2.47;;;6.70;93.80;;;;;;961550;145;27273;-73
2022/01/08 12:26:54;;;;;;;3.73;2.43;;;6.70;93.90;;;;;;931443;148;27426;-74
2022/01/08 12:29:36;;;;;;;3.33;2.13;;;6.70;94.10;;;;;;944257;148;27344;-74
2022/01/08 12:32:35;;;;;;;3.17;2.40;;;6.70;94.30;;;;;;963479;144;27662;-74
2022/01/08 12:35:22;;;;;;;4.93;2.40;;;6.70;94.40;;;;;;965802;145;27284;-74
2022/01/08 12:37:47;;;;;;;3.67;2.30;;;6.80;94.60;;;;;;937788;148;27372;-74
2022/01/08 12:40:14;;;;;;;4.23;2.77;;;6.80;94.60;;;;;;946672;148;27311;-74
2022/01/08 12:42:40;;;;;;;4.57;2.30;;;6.80;94.80;;;;;;955703;145;27728;-74
2022/01/08 12:45:10;;;;;;;4.97;3.17;;;6.90;94.70;;;;;;947349;147;27792;-74
2022/01/08 12:47:48;;;;;;;4.73;2.60;;;7.00;94.80;;;;;;941698;147;27276;-74
2022/01/08 12:50:36;;;;;;;3.27;2.27;;;7.00;95.00;;;;;;948771;148;27394;-74
2022/01/08 12:53:09;;;;;;;3.87;2.17;;;7.10;95.30;;;;;;966531;146;27911;-74
2022/01/08 12:55:35;;;;;;;2.90;2.40;;;7.20;95.30;;;;;;951876;148;27320;-74
2022/01/08 12:58:01;;;;;;;5.50;2.97;;;7.30;95.30;;;;;;971723;145;27332;-74
2022/01/08 13:00:28;;;;;;;4.23;2.47;;;7.40;95.20;;;;;;975981;145;27290;-74
2022/01/08 13:02:55;;;;;;;3.90;2.43;;;7.50;94.80;;;;;;974689;145;27243;-74
2022/01/08 13:05:21;;;;;;;2.33;2.13;;;7.60;94.30;;;;;;968242;145;27290;-74
2022/01/08 13:07:48;;;;;;;6.03;2.13;;;7.60;93.90;;;;;;971448;145;27440;-74
2022/01/08 13:10:17;;;;;;;3.97;2.57;;;7.60;93.70;;;;;;960966;146;27396;-74
2022/01/08 13:12:43;;;;;;;6.73;2.70;;;7.60;93.30;;;;;;967267;146;27320;-74
2022/01/08 13:15:11;;;;;;;3.53;2.83;;;7.50;92.90;;;;;;961468;146;27337;-74
2022/01/08 13:17:37;;;;;;;2.80;2.30;;;7.50;92.90;;;;;;956569;147;27303;-74
2022/01/08 13:20:03;;;;;;;4.03;2.60;;;7.40;92.90;;;;;;969905;144;27399;-74
2022/01/08 13:22:31;;;;;;;2.50;2.30;;;7.40;93.10;;;;;;955997;147;27404;-74
2022/01/08 13:24:56;;;;;;;5.07;2.73;;;7.40;93.30;;;;;;953366;148;27655;-73
2022/01/08 13:27:24;;;;;;;2.53;2.33;;;7.40;93.70;;;;;;976645;144;27318;-74